This is the latest recevied weather packets stored in our database for station/object W0BJ-1. If no packets are shown the sender has not sent any weather packets the latest 10 day(s).
| Time | Temp. | Humidity | Pressure | Rain* | Wind** | Luminosity | Snow |
|---|---|---|---|---|---|---|---|
| 1777604141 | 11.11° C | 85% | 1016.4 hPa | 0 mm | - | 0 W/m² | - |
| 1777603239 | 11.11° C | 83% | 1016.3 hPa | 0 mm | - | 0 W/m² | - |
| 1777600856 | 12.22° C | 79% | 1016.1 hPa | 0 mm | - | 0 W/m² | - |
| 1777597839 | 12.78° C | 73% | 1015.2 hPa | 0 mm | - | 0 W/m² | - |
| 1777597247 | 12.78° C | 71% | 1015.3 hPa | 0 mm | - | 0 W/m² | - |
| 1777595456 | 15° C | 60% | 1015.6 hPa | 0 mm | - | 0 W/m² | - |
| 1777595140 | 15° C | 56% | 1015.4 hPa | 0 mm | - | 0 W/m² | - |
| 1777594838 | 15.56° C | 52% | 1015.3 hPa | 0 mm | - | 0 W/m² | - |
| 1777594552 | 15.56° C | 50% | 1015 hPa | 0 mm | - | 0 W/m² | - |
| 1777593644 | 16.11° C | 47% | 1014.6 hPa | 0 mm | - | 0 W/m² | - |
| 1777593337 | 16.11° C | 47% | 1014.5 hPa | 0 mm | - | 7 W/m² | - |
| 1777591538 | 16.67° C | 44% | 1014.6 hPa | 0 mm | - | 46 W/m² | - |
| 1777588539 | 18.33° C | 39% | 1014.6 hPa | 0 mm | - | 167 W/m² | - |
| 1777586737 | 18.33° C | 39% | 1014.9 hPa | 0 mm | - | 403 W/m² | - |
| 1777586458 | 18.33° C | 39% | 1014.9 hPa | 0 mm | - | 311 W/m² | - |
| 1777584339 | 18.89° C | 39% | 1015.6 hPa | 0 mm | - | 520 W/m² | - |
| 1777583139 | 18.89° C | 40% | 1015.9 hPa | 0 mm | - | 768 W/m² | - |
| 1777581052 | 17.22° C | 41% | 1016.7 hPa | 0 mm | - | 297 W/m² | - |
| 1777578358 | 16.67° C | 39% | 1017.1 hPa | 0 mm | - | 330 W/m² | - |
| 1777578037 | 17.22° C | 38% | 1017.1 hPa | 0 mm | - | 234 W/m² | - |
| 1777577739 | 17.22° C | 39% | 1017.1 hPa | 0 mm | - | 246 W/m² | - |
| 1777573856 | 17.78° C | 38% | 1017.6 hPa | 0 mm | - | 478 W/m² | - |
| 1777573538 | 17.78° C | 40% | 1017.7 hPa | 0 mm | - | 557 W/m² | - |
| 1777572054 | 18.33° C | 34% | 1018.2 hPa | 0 mm | - | 684 W/m² | - |
| 1777571437 | 18.33° C | 34% | 1018.5 hPa | 0 mm | - | 1069 W/m² | - |
* Rain latest hour (hover to see other rain measurements)
** Current wind speed in m/s (hover to see current wind gust speed)